Nearby METAR Reports

 

LIBG - Grottaglie(Civ/A, Italy
Distance from station: NE 13km
Ultima actualizare: 17/04/2024 19:50
NOT Current
Precipitații, In mare parte înorat
Precipitații, In mare parte înorat
 Vânt dela SSE
Vântul: SSE 4 km/h
Temperatura: 13°C
Punct de rouă: 12°C
Umiditate: 94%
Barometru: 1004 hPa
Sumar: Precipitații
Clouds: In mare parte înorat
Visibility: 10 km
Cloud details: Parțial înorat 610 m
In mare parte înorat 1067 m
2024/04/17 17:50 LIBG 171750Z 15002KT 9999 RA SCT020 BKN035 13/12 Q1004
LIBH - Marina Di Ginosa, Italy
Distance from station: V 33km
Ultima actualizare: 17/04/2024 15:55
NOT Current
Acoperit cu nori
Acoperit cu nori
 Vânt dela NV
Vântul: NV 19 km/h
Temperatura: 16°C
Punct de rouă: 12°C
Umiditate: 77%
Barometru: 1001 hPa
Clouds: Acoperit cu nori
Visibility: 10 km
Cloud details: Parțial înorat 610 m
Acoperit cu nori 762 m
2024/04/17 13:55 LIBH 171355Z 32010KT 290V350 9999 SCT020 OVC025 16/12 Q1001 RMK OVC QUK 1 QUL 1 S VIS MAR 15 KM VIS MIN 9999
 
LIBV - Gioia Del Colle, Italy
Distance from station: NV 45km
Ultima actualizare: 18/04/2024 02:55
Parțial înorat
Parțial înorat
 Vânt dela VNV
Vântul: VNV 11 km/h
Temperatura: 8°C
Wind Chill: 6°C
Punct de rouă: 8°C
Umiditate: 100%
Barometru: 1004 hPa
Clouds: Parțial înorat
Visibility: 8 km
2024/04/18 00:55 LIBV 180055Z 29006KT 8000 NSC 08/08 Q1004
LIBR - Brindisi/Casale, Italy
Distance from station: ENE 62km
Ultima actualizare: 18/04/2024 03:20
Senin
Senin
 Vânt dela VSV
Vântul: VSV 15 km/h
Temperatura: 8°C
Wind Chill: 5°C
Punct de rouă: 6°C
Umiditate: 87%
Barometru: 1005 hPa
Sumar: Senin
Visibility: greater than 10 km
2024/04/18 01:20 LIBR 180120Z 24008KT CAVOK 08/06 Q1005
 
LIBN - Lecce (it-Afb), Italy
Distance from station: ESE 79km
Ultima actualizare: 18/04/2024 02:55
Senin
Senin
 Vânt dela V
Vântul: V 11 km/h
Temperatura: 12°C
Punct de rouă: 11°C
Umiditate: 94%
Barometru: 1004 hPa
Sumar: Senin
Visibility: greater than 10 km
2024/04/18 00:55 LIBN 180055Z 26006KT CAVOK 12/11 Q1004
LIBD - Bari/Palese Macc, Italy
Distance from station: NNV 85km
Ultima actualizare: 18/04/2024 02:50
Senin
Senin
 Vânt dela V
Vântul: V 15 km/h
Temperatura: 11°C
Punct de rouă: 4°C
Umiditate: 62%
Barometru: 1005 hPa
Sumar: Senin
Visibility: greater than 10 km
2024/04/18 00:50 LIBD 180050Z 26008KT CAVOK 11/04 Q1005